createdAt,value
2023-03-23T00:00:15.481Z,8.18
2023-03-23T00:02:44.086Z,8.12
2023-03-23T00:05:11.181Z,8.01
2023-03-23T00:07:37.890Z,7.84
2023-03-23T00:10:04.975Z,7.68
2023-03-23T00:12:36.003Z,7.60
2023-03-23T00:15:09.247Z,7.65
2023-03-23T00:17:36.309Z,7.66
2023-03-23T00:20:06.451Z,7.71
2023-03-23T00:22:38.658Z,7.77
2023-03-23T00:25:06.641Z,7.91
2023-03-23T00:27:33.772Z,7.94
2023-03-23T00:30:01.100Z,8.11
2023-03-23T00:32:28.443Z,8.08
2023-03-23T00:35:01.669Z,8.08
2023-03-23T00:37:28.796Z,8.14
2023-03-23T00:39:58.375Z,8.18
2023-03-23T00:42:26.287Z,8.03
2023-03-23T00:45:01.245Z,7.92
2023-03-23T00:47:28.517Z,7.91
2023-03-23T00:49:57.346Z,7.94
2023-03-23T00:52:24.183Z,7.94
2023-03-23T00:54:51.023Z,7.96
2023-03-23T00:57:18.420Z,7.92
2023-03-23T00:59:45.114Z,7.89
2023-03-23T01:02:11.730Z,7.87
2023-03-23T01:04:41.272Z,7.94
2023-03-23T01:07:09.507Z,8.05
2023-03-23T01:09:37.531Z,8.14
2023-03-23T01:12:04.391Z,8.26
2023-03-23T01:14:31.344Z,8.30
2023-03-23T01:16:57.997Z,8.33
2023-03-23T01:19:24.711Z,8.35
2023-03-23T01:21:51.640Z,8.43
2023-03-23T01:24:18.238Z,8.51
2023-03-23T01:26:45.002Z,8.57
2023-03-23T01:29:12.169Z,8.62
2023-03-23T01:31:38.932Z,8.70
2023-03-23T01:34:05.644Z,8.72
2023-03-23T01:36:33.949Z,8.70
2023-03-23T01:39:03.614Z,8.52
2023-03-23T01:41:30.701Z,8.31
2023-03-23T01:44:08.222Z,8.25
2023-03-23T01:46:36.972Z,8.27
2023-03-23T01:49:10.804Z,8.29
2023-03-23T01:51:43.921Z,8.29
2023-03-23T01:54:15.123Z,8.31
2023-03-23T01:56:48.522Z,8.43
2023-03-23T01:59:16.615Z,8.53
2023-03-23T02:01:46.026Z,8.66
2023-03-23T02:04:15.918Z,8.65
2023-03-23T02:06:42.762Z,8.57
2023-03-23T02:09:10.603Z,8.36
2023-03-23T02:11:37.500Z,8.21
2023-03-23T02:14:04.201Z,8.13
2023-03-23T02:16:57.574Z,7.92
2023-03-23T02:19:42.097Z,7.84
2023-03-23T02:22:30.507Z,7.83
2023-03-23T02:25:25.263Z,7.79
2023-03-23T02:28:26.342Z,7.62
2023-03-23T02:31:12.430Z,7.66
2023-03-23T02:33:58.513Z,7.69
2023-03-23T02:36:44.712Z,7.68
2023-03-23T02:39:23.822Z,7.72
2023-03-23T02:41:59.174Z,7.75
2023-03-23T02:44:31.029Z,7.75
2023-03-23T02:46:58.861Z,7.70
2023-03-23T02:49:28.982Z,7.68
2023-03-23T02:51:59.812Z,7.88
2023-03-23T02:54:28.060Z,8.33
2023-03-23T02:56:55.997Z,8.65
2023-03-23T02:59:22.649Z,8.89
2023-03-23T03:02:05.139Z,9.13
2023-03-23T03:04:35.008Z,9.24
2023-03-23T03:07:31.412Z,9.36
2023-03-23T03:10:08.208Z,9.47
2023-03-23T03:13:20.263Z,9.64
2023-03-23T03:15:57.514Z,9.74
2023-03-23T03:18:33.930Z,9.87
2023-03-23T03:21:08.749Z,10.07
2023-03-23T03:23:38.505Z,10.13
2023-03-23T03:26:07.093Z,10.23
2023-03-23T03:28:34.523Z,10.29
2023-03-23T03:31:04.186Z,10.39
2023-03-23T03:33:32.570Z,10.53
2023-03-23T03:36:03.400Z,10.50
2023-03-23T03:38:30.226Z,10.41
2023-03-23T03:40:57.706Z,10.43
2023-03-23T03:43:24.702Z,10.38
2023-03-23T03:45:51.350Z,10.24
2023-03-23T03:48:18.117Z,10.21
2023-03-23T03:50:44.919Z,10.20
2023-03-23T03:53:11.951Z,10.25
2023-03-23T03:55:39.810Z,10.37
2023-03-23T03:58:08.406Z,10.35
2023-03-23T04:00:35.089Z,10.31
2023-03-23T04:03:02.775Z,10.32
2023-03-23T04:05:32.378Z,10.32
2023-03-23T04:08:09.735Z,10.38
2023-03-23T04:10:36.932Z,10.31
2023-03-23T04:13:05.667Z,10.29
2023-03-23T04:15:32.521Z,10.28
2023-03-23T04:17:59.946Z,10.34
2023-03-23T04:20:32.292Z,10.33
2023-03-23T04:22:59.060Z,10.49
2023-03-23T04:25:25.707Z,10.55
2023-03-23T04:27:55.760Z,10.59
2023-03-23T04:30:24.551Z,10.63
2023-03-23T04:32:53.144Z,10.66
2023-03-23T04:35:21.069Z,10.65
2023-03-23T04:37:47.812Z,10.63
2023-03-23T04:40:15.550Z,10.67
2023-03-23T04:42:46.821Z,10.76
2023-03-23T04:45:22.884Z,10.84
2023-03-23T04:47:54.317Z,10.96
2023-03-23T04:50:25.141Z,10.98
2023-03-23T04:52:52.615Z,11.12
2023-03-23T04:55:20.913Z,11.20
2023-03-23T04:57:48.593Z,11.26
2023-03-23T05:00:17.538Z,11.32
2023-03-23T05:02:46.196Z,11.32
2023-03-23T05:05:14.579Z,11.40
2023-03-23T05:07:42.272Z,11.39
2023-03-23T05:10:11.462Z,11.39
2023-03-23T05:12:38.245Z,11.41
2023-03-23T05:15:06.998Z,11.43
2023-03-23T05:17:34.771Z,11.50
2023-03-23T05:20:01.718Z,11.54
2023-03-23T05:22:29.189Z,11.59
2023-03-23T05:24:55.792Z,11.63
2023-03-23T05:27:22.411Z,11.72
2023-03-23T05:29:52.681Z,11.79
2023-03-23T05:32:20.344Z,11.82
2023-03-23T05:34:47.687Z,11.90
2023-03-23T05:37:14.842Z,11.95
2023-03-23T05:39:41.506Z,11.98
2023-03-23T05:42:08.897Z,11.98
2023-03-23T05:44:35.578Z,11.99
2023-03-23T05:47:02.214Z,12.02
2023-03-23T05:49:28.860Z,12.00
2023-03-23T05:51:55.494Z,12.05
2023-03-23T05:54:22.134Z,12.05
2023-03-23T05:56:50.128Z,12.00
2023-03-23T05:59:16.816Z,12.02
2023-03-23T06:01:43.509Z,12.03
2023-03-23T06:04:18.083Z,12.04
2023-03-23T06:06:44.854Z,12.06
2023-03-23T06:09:12.457Z,12.12
2023-03-23T06:11:39.337Z,12.26
2023-03-23T06:14:05.929Z,12.35
2023-03-23T06:16:32.716Z,12.46
2023-03-23T06:19:01.750Z,12.57
2023-03-23T06:21:29.153Z,12.71
2023-03-23T06:23:57.034Z,12.83
2023-03-23T06:26:29.723Z,13.03
2023-03-23T06:28:56.926Z,13.26
2023-03-23T06:31:23.543Z,13.51
2023-03-23T06:33:50.121Z,13.80
2023-03-23T06:36:17.826Z,14.04
2023-03-23T06:38:44.610Z,14.32
2023-03-23T06:41:12.496Z,14.39
2023-03-23T06:43:40.544Z,14.48
2023-03-23T06:46:07.815Z,14.46
2023-03-23T06:48:34.440Z,14.61
2023-03-23T06:51:01.151Z,14.66
2023-03-23T06:53:27.749Z,14.54
2023-03-23T06:55:54.400Z,14.40
2023-03-23T06:58:22.351Z,14.30
2023-03-23T07:00:48.958Z,14.43
2023-03-23T07:03:15.822Z,14.53
2023-03-23T07:05:42.826Z,14.52
2023-03-23T07:08:09.620Z,14.61
2023-03-23T07:10:36.292Z,14.77
2023-03-23T07:13:03.083Z,14.75
2023-03-23T07:15:29.698Z,15.09
2023-03-23T07:17:56.576Z,15.29
2023-03-23T07:20:23.560Z,15.17
2023-03-23T07:22:50.916Z,14.88
2023-03-23T07:25:18.608Z,14.86
2023-03-23T07:27:46.992Z,15.08
2023-03-23T07:30:15.929Z,15.07
2023-03-23T07:32:42.726Z,14.84
2023-03-23T07:35:10.964Z,14.92
2023-03-23T07:37:37.667Z,14.88
2023-03-23T07:40:15.795Z,14.91
2023-03-23T07:42:44.740Z,15.29
2023-03-23T07:45:13.392Z,16.55
2023-03-23T07:47:40.933Z,18.21
2023-03-23T07:50:09.691Z,19.72
2023-03-23T07:52:37.448Z,19.79
2023-03-23T07:55:06.281Z,19.54
2023-03-23T07:57:37.559Z,17.82
2023-03-23T08:00:10.636Z,17.53
2023-03-23T08:05:09.895Z,16.20
2023-03-23T08:07:37.103Z,15.71
2023-03-23T08:10:03.950Z,15.47
2023-03-23T08:12:30.595Z,15.33
2023-03-23T08:14:57.203Z,15.07
2023-03-23T08:17:23.812Z,15.08
2023-03-23T08:19:53.623Z,15.18
2023-03-23T08:22:20.819Z,15.48
2023-03-23T08:24:47.410Z,15.72
2023-03-23T08:27:14.099Z,16.35
2023-03-23T08:29:41.904Z,17.81
2023-03-23T08:32:08.524Z,19.66
2023-03-23T08:34:35.179Z,20.06
2023-03-23T08:37:01.889Z,20.27
2023-03-23T08:39:29.125Z,20.57
2023-03-23T08:41:55.839Z,19.62
2023-03-23T08:44:22.446Z,19.18
2023-03-23T08:46:49.103Z,19.36
2023-03-23T08:49:15.665Z,18.76
2023-03-23T08:51:43.199Z,18.45
2023-03-23T08:54:10.092Z,17.80
2023-03-23T08:56:36.668Z,19.31
2023-03-23T08:59:03.288Z,19.50
2023-03-23T09:01:29.897Z,17.99
2023-03-23T09:03:56.490Z,17.62
2023-03-23T09:06:23.454Z,17.22
2023-03-23T09:08:51.246Z,17.45
2023-03-23T09:11:17.904Z,17.28
2023-03-23T09:13:44.622Z,17.51
2023-03-23T09:16:11.346Z,17.45
2023-03-23T09:18:38.029Z,17.05
2023-03-23T09:21:04.858Z,16.76
2023-03-23T09:23:46.664Z,16.96
2023-03-23T09:26:13.280Z,16.79
2023-03-23T09:28:39.953Z,16.76
2023-03-23T09:31:06.805Z,16.71
2023-03-23T09:33:37.280Z,16.79
2023-03-23T09:36:15.957Z,16.82
2023-03-23T09:38:42.737Z,17.24
2023-03-23T09:41:38.524Z,17.04
2023-03-23T09:44:14.633Z,17.01
2023-03-23T09:46:52.079Z,17.27
2023-03-23T09:49:50.326Z,17.09
2023-03-23T09:52:19.163Z,16.97
2023-03-23T09:54:54.593Z,17.24
2023-03-23T09:57:36.226Z,17.37
2023-03-23T10:00:20.388Z,17.24
2023-03-23T10:03:12.021Z,17.17
2023-03-23T10:05:46.608Z,17.11
2023-03-23T10:08:15.978Z,17.08
2023-03-23T10:11:02.048Z,17.17
2023-03-23T10:14:06.028Z,17.77
2023-03-23T10:16:42.293Z,17.35
2023-03-23T10:19:14.393Z,17.37
2023-03-23T10:21:47.829Z,17.38
2023-03-23T10:24:18.001Z,17.60
2023-03-23T10:27:14.819Z,17.64
2023-03-23T10:29:49.470Z,18.07
2023-03-23T10:32:20.546Z,18.06
2023-03-23T10:34:47.729Z,17.61
2023-03-23T10:37:20.888Z,17.63
2023-03-23T10:39:56.419Z,17.59
2023-03-23T10:42:26.567Z,17.38
2023-03-23T10:44:54.288Z,16.92
2023-03-23T10:47:20.904Z,16.88
2023-03-23T10:49:54.823Z,16.70
2023-03-23T10:52:36.349Z,16.82
2023-03-23T10:56:28.412Z,17.49
2023-03-23T10:58:59.821Z,18.89
2023-03-23T11:01:37.837Z,19.44
2023-03-23T11:06:52.115Z,20.95
2023-03-23T11:09:23.636Z,20.70
2023-03-23T11:12:02.143Z,20.37
2023-03-23T11:14:35.579Z,19.28
2023-03-23T11:17:15.724Z,18.47
2023-03-23T11:19:46.147Z,18.16
2023-03-23T11:22:23.477Z,18.26
2023-03-23T11:24:57.177Z,18.81
2023-03-23T11:27:32.616Z,18.90
2023-03-23T11:30:11.828Z,18.85
2023-03-23T11:32:46.309Z,18.65
2023-03-23T11:35:23.231Z,18.52
2023-03-23T11:37:56.124Z,18.47
2023-03-23T11:40:28.593Z,18.31
2023-03-23T11:43:11.823Z,18.38
2023-03-23T11:45:43.785Z,18.52
2023-03-23T11:48:23.288Z,18.61
2023-03-23T11:50:56.026Z,18.40
2023-03-23T11:53:37.549Z,18.40
2023-03-23T11:56:17.711Z,18.74
2023-03-23T11:58:49.897Z,18.66
2023-03-23T12:01:28.801Z,18.44
2023-03-23T12:04:09.524Z,18.38
2023-03-23T12:06:47.314Z,17.96
2023-03-23T12:09:27.624Z,18.04
2023-03-23T12:12:13.759Z,17.90
2023-03-23T12:14:51.264Z,17.91
2023-03-23T12:17:32.701Z,17.71
2023-03-23T12:20:23.854Z,17.52
2023-03-23T12:23:07.577Z,17.67
2023-03-23T12:25:59.761Z,17.45
2023-03-23T12:28:41.592Z,17.49
2023-03-23T12:31:22.912Z,17.75
2023-03-23T12:34:00.840Z,18.04
2023-03-23T12:36:42.754Z,17.57
2023-03-23T12:39:48.693Z,17.55
2023-03-23T12:42:27.400Z,17.48
2023-03-23T12:45:02.046Z,17.62
2023-03-23T12:47:45.443Z,17.45
2023-03-23T12:50:21.561Z,17.50
2023-03-23T12:52:59.646Z,17.78
2023-03-23T12:55:36.969Z,17.68
2023-03-23T12:58:09.689Z,17.70
2023-03-23T13:01:00.038Z,17.74
2023-03-23T13:03:39.076Z,17.86
2023-03-23T13:06:16.580Z,17.57
2023-03-23T13:08:53.914Z,17.58
2023-03-23T13:11:29.483Z,17.50
2023-03-23T13:14:05.772Z,17.64
2023-03-23T13:16:42.998Z,17.89
2023-03-23T13:19:20.628Z,18.03
2023-03-23T13:21:57.815Z,18.14
2023-03-23T13:24:31.193Z,18.27
2023-03-23T13:27:02.356Z,18.33
2023-03-23T13:29:33.654Z,18.33
2023-03-23T13:32:15.006Z,18.13
2023-03-23T13:34:50.798Z,17.97
2023-03-23T13:37:28.106Z,18.00
2023-03-23T13:40:00.112Z,18.09
2023-03-23T13:42:36.360Z,18.00
2023-03-23T13:45:23.422Z,17.91
2023-03-23T13:47:53.059Z,17.53
2023-03-23T13:50:34.024Z,17.45
2023-03-23T13:53:05.276Z,17.74
2023-03-23T13:55:45.298Z,17.77
2023-03-23T13:58:25.598Z,17.58
2023-03-23T14:01:13.888Z,17.57
2023-03-23T14:03:45.358Z,17.38
2023-03-23T14:06:21.515Z,17.48
2023-03-23T14:08:54.285Z,17.32
2023-03-23T14:11:27.628Z,17.13
2023-03-23T14:14:06.812Z,17.05
2023-03-23T14:16:41.361Z,17.02
2023-03-23T14:19:21.092Z,16.96
2023-03-23T14:21:57.898Z,16.87
2023-03-23T14:24:29.476Z,16.79
2023-03-23T14:27:11.978Z,16.89
2023-03-23T14:29:41.967Z,16.85
2023-03-23T14:32:18.140Z,16.70
2023-03-23T14:34:51.260Z,16.72
2023-03-23T14:37:24.950Z,16.99
2023-03-23T14:39:58.160Z,17.26
2023-03-23T14:42:33.138Z,17.29
2023-03-23T14:45:05.005Z,17.38
2023-03-23T14:47:37.470Z,17.49
2023-03-23T14:50:10.835Z,17.31
2023-03-23T14:52:43.041Z,17.37
2023-03-23T14:55:16.082Z,17.15
2023-03-23T14:57:46.344Z,17.22
2023-03-23T15:00:24.954Z,17.07
2023-03-23T15:02:57.472Z,16.75
2023-03-23T15:05:34.418Z,16.59
2023-03-23T15:08:12.703Z,16.69
2023-03-23T15:10:43.665Z,16.55
2023-03-23T15:13:16.545Z,16.64
2023-03-23T15:15:46.253Z,16.60
2023-03-23T15:18:33.038Z,16.52
2023-03-23T15:21:13.129Z,16.46
2023-03-23T15:23:48.491Z,16.42
2023-03-23T15:26:34.423Z,16.41
2023-03-23T15:29:15.613Z,16.44
2023-03-23T15:31:58.414Z,16.52
2023-03-23T15:34:40.157Z,16.47
2023-03-23T15:37:21.190Z,16.51
2023-03-23T15:39:55.179Z,16.31
2023-03-23T15:42:31.180Z,16.18
2023-03-23T15:45:07.039Z,16.01
2023-03-23T15:47:41.102Z,15.94
2023-03-23T15:50:16.583Z,15.86
2023-03-23T15:52:47.253Z,15.88
2023-03-23T15:55:27.927Z,15.82
2023-03-23T15:57:59.314Z,15.76
2023-03-23T16:00:31.415Z,15.69
2023-03-23T16:03:04.154Z,15.74
2023-03-23T16:05:33.805Z,15.77
2023-03-23T16:08:04.418Z,15.71
2023-03-23T16:10:36.612Z,15.67
2023-03-23T16:13:07.252Z,15.66
2023-03-23T16:15:37.139Z,15.62
2023-03-23T16:18:07.066Z,15.52
2023-03-23T16:20:36.934Z,15.46
2023-03-23T16:23:06.561Z,15.49
2023-03-23T16:25:39.008Z,15.43
2023-03-23T16:28:08.569Z,15.38
2023-03-23T16:30:38.511Z,15.40
2023-03-23T16:33:08.307Z,15.35
2023-03-23T16:35:38.426Z,15.31
2023-03-23T16:38:09.219Z,15.27
2023-03-23T16:40:42.364Z,15.23
2023-03-23T16:43:12.688Z,15.18
2023-03-23T16:45:44.412Z,15.18
2023-03-23T16:48:16.406Z,15.11
2023-03-23T16:50:47.401Z,15.08
2023-03-23T16:53:17.106Z,15.01
2023-03-23T16:55:49.290Z,14.99
2023-03-23T16:58:19.684Z,14.95
2023-03-23T17:00:52.199Z,14.98
2023-03-23T17:03:23.015Z,14.91
2023-03-23T17:05:54.465Z,14.91
2023-03-23T17:08:24.529Z,14.84
2023-03-23T17:10:56.788Z,14.80
2023-03-23T17:13:28.066Z,14.78
2023-03-23T17:15:58.850Z,14.79
2023-03-23T17:18:29.287Z,14.74
2023-03-23T17:20:59.192Z,14.76
2023-03-23T17:23:28.835Z,14.75
2023-03-23T17:26:01.574Z,14.70
2023-03-23T17:28:31.249Z,14.66
2023-03-23T17:31:00.949Z,14.63
2023-03-23T17:33:30.561Z,14.61
2023-03-23T17:36:00.156Z,14.60
2023-03-23T17:38:29.881Z,14.58
2023-03-23T17:41:04.396Z,14.60
2023-03-23T17:43:35.321Z,14.64
2023-03-23T17:46:04.960Z,14.68
2023-03-23T17:48:34.546Z,14.74
2023-03-23T17:51:04.230Z,14.73
2023-03-23T17:53:35.885Z,14.74
2023-03-23T17:56:09.641Z,14.70
2023-03-23T17:58:39.538Z,14.81
2023-03-23T18:01:09.659Z,14.85
2023-03-23T18:03:40.037Z,14.86
2023-03-23T18:06:11.362Z,14.81
2023-03-23T18:08:41.640Z,14.79
2023-03-23T18:11:14.037Z,14.84
2023-03-23T18:13:43.651Z,14.81
2023-03-23T18:16:13.572Z,14.77
2023-03-23T18:18:43.214Z,14.82
2023-03-23T18:21:13.288Z,14.83
2023-03-23T18:23:52.972Z,14.82
2023-03-23T18:26:31.884Z,14.78
2023-03-23T18:29:01.495Z,14.81
2023-03-23T18:31:31.449Z,14.78
2023-03-23T18:34:01.217Z,14.74
2023-03-23T18:36:31.183Z,14.76
2023-03-23T18:39:01.143Z,14.81
2023-03-23T18:41:33.324Z,14.83
2023-03-23T18:44:02.904Z,14.84
2023-03-23T18:46:32.470Z,14.82
2023-03-23T18:49:02.155Z,14.76
2023-03-23T18:51:31.771Z,14.73
2023-03-23T18:54:01.354Z,14.68
2023-03-23T18:56:33.555Z,14.68
2023-03-23T18:59:03.147Z,14.67
2023-03-23T19:01:32.799Z,14.68
2023-03-23T19:04:06.418Z,14.65
2023-03-23T19:06:37.381Z,14.58
2023-03-23T19:09:07.379Z,14.63
2023-03-23T19:11:39.534Z,14.56
2023-03-23T19:14:09.160Z,14.58
2023-03-23T19:16:38.823Z,14.53
2023-03-23T19:19:10.433Z,14.53
2023-03-23T19:21:43.822Z,14.47
2023-03-23T19:24:16.404Z,14.51
2023-03-23T19:26:49.815Z,14.44
2023-03-23T19:29:26.645Z,14.41
2023-03-23T19:31:57.356Z,14.33
2023-03-23T19:34:28.329Z,14.32
2023-03-23T19:37:05.482Z,14.30
2023-03-23T19:39:36.445Z,14.27
2023-03-23T19:42:09.584Z,14.26
2023-03-23T19:44:39.574Z,14.22
2023-03-23T19:47:09.407Z,14.28
2023-03-23T19:49:39.404Z,14.28
2023-03-23T19:52:12.737Z,14.31
2023-03-23T19:54:43.671Z,14.31
2023-03-23T19:57:16.382Z,14.24
2023-03-23T19:59:47.257Z,14.22
2023-03-23T20:02:17.342Z,14.16
2023-03-23T20:04:47.036Z,14.13
2023-03-23T20:07:16.677Z,14.20
2023-03-23T20:09:46.497Z,14.19
2023-03-23T20:12:21.225Z,14.13
2023-03-23T20:14:50.946Z,14.08
2023-03-23T20:17:20.599Z,14.13
2023-03-23T20:19:50.158Z,14.06
2023-03-23T20:22:19.831Z,14.10
2023-03-23T20:24:49.717Z,14.11
2023-03-23T20:27:21.978Z,14.17
2023-03-23T20:29:52.459Z,14.09
2023-03-23T20:32:22.197Z,14.09
2023-03-23T20:34:51.952Z,14.11
2023-03-23T20:37:24.165Z,14.14
2023-03-23T20:39:53.745Z,14.08
2023-03-23T20:42:26.146Z,14.02
2023-03-23T20:44:56.158Z,14.04
2023-03-23T20:47:25.829Z,14.03
2023-03-23T20:49:55.467Z,14.10
2023-03-23T20:52:26.128Z,14.02
2023-03-23T20:54:56.308Z,13.92
2023-03-23T20:57:28.980Z,13.82
2023-03-23T20:59:58.899Z,13.83
2023-03-23T21:02:30.119Z,13.80
2023-03-23T21:05:04.437Z,13.72
2023-03-23T21:10:09.363Z,13.45
2023-03-23T21:12:41.700Z,13.37
2023-03-23T21:15:11.624Z,13.26
2023-03-23T21:17:41.265Z,13.13
2023-03-23T21:20:12.560Z,13.03
2023-03-23T21:22:42.186Z,12.99
2023-03-23T21:25:12.830Z,12.93
2023-03-23T21:27:45.124Z,12.91
2023-03-23T21:30:14.964Z,12.82
2023-03-23T21:32:44.651Z,12.76
2023-03-23T21:35:14.649Z,12.75
2023-03-23T21:37:44.193Z,12.71
2023-03-23T21:40:17.873Z,12.66
2023-03-23T21:42:51.910Z,12.65
2023-03-23T21:45:21.561Z,12.66
2023-03-23T21:47:57.975Z,12.59
2023-03-23T21:50:27.992Z,12.43
2023-03-23T21:52:57.578Z,12.35
2023-03-23T21:55:29.853Z,12.24
2023-03-23T21:58:03.027Z,12.19
2023-03-23T22:00:32.722Z,12.24
2023-03-23T22:03:02.917Z,12.26
2023-03-23T22:05:32.601Z,12.29
2023-03-23T22:08:02.220Z,12.21
2023-03-23T22:10:31.752Z,12.09
2023-03-23T22:13:03.923Z,12.01
2023-03-23T22:15:33.501Z,11.96
2023-03-23T22:18:03.213Z,11.98
2023-03-23T22:20:33.660Z,12.12
2023-03-23T22:23:03.183Z,12.11
2023-03-23T22:25:36.353Z,12.12
2023-03-23T22:28:09.173Z,12.06
2023-03-23T22:30:38.955Z,11.93
2023-03-23T22:33:08.570Z,11.81
2023-03-23T22:35:38.344Z,11.67
2023-03-23T22:38:07.925Z,11.57
2023-03-23T22:40:38.012Z,11.49
2023-03-23T22:43:10.231Z,11.43
2023-03-23T22:45:39.792Z,11.41
2023-03-23T22:48:09.422Z,11.49
2023-03-23T22:50:39.019Z,11.52
2023-03-23T22:53:08.792Z,11.48
2023-03-23T22:55:38.366Z,11.50
2023-03-23T22:58:11.937Z,11.43
2023-03-23T23:00:42.614Z,11.37
2023-03-23T23:03:12.295Z,11.37
2023-03-23T23:05:44.918Z,11.43
2023-03-23T23:08:17.736Z,11.44
2023-03-23T23:10:49.214Z,11.49
2023-03-23T23:13:22.019Z,11.45
2023-03-23T23:15:54.087Z,11.53
2023-03-23T23:18:24.257Z,11.51
2023-03-23T23:20:55.973Z,11.62
2023-03-23T23:23:26.573Z,11.67
2023-03-23T23:25:57.467Z,11.78
2023-03-23T23:28:30.124Z,11.81
2023-03-23T23:30:59.867Z,11.94
2023-03-23T23:33:29.816Z,12.11
2023-03-23T23:35:59.714Z,12.25
2023-03-23T23:38:29.274Z,12.29
2023-03-23T23:40:58.844Z,12.41
2023-03-23T23:43:31.280Z,12.42
2023-03-23T23:46:00.989Z,12.43
2023-03-23T23:48:30.542Z,12.44
2023-03-23T23:51:00.131Z,12.44
2023-03-23T23:53:31.503Z,12.45
2023-03-23T23:56:04.373Z,12.38
2023-03-23T23:58:36.562Z,12.36
